Terminal Aerodrome Forecast
Issued by NWS

Home | Current Version | Previous Version | Text Only | Print | Product List | Glossary On
Versions: 1 2 3 4 5 6 7 8 9 10 11
000
FTUS43 KICT 252339
TAFCNU
TAF
KCNU 252339Z 2600/2624 17015G22KT P6SM BKN250
     FM260500 18012KT P6SM BKN250
     FM260900 19012G20KT P6SM OVC015=

USA.gov is the U.S. government's official web portal to all federal, state and local government web resources and services.